createdAt,value
2017-09-07T00:00:34.174Z,88.81
2017-09-07T00:03:02.640Z,88.50
2017-09-07T00:05:31.132Z,88.64
2017-09-07T00:07:59.611Z,88.02
2017-09-07T00:10:28.087Z,87.90
2017-09-07T00:12:56.540Z,87.75
2017-09-07T00:15:24.972Z,87.98
2017-09-07T00:17:53.446Z,88.20
2017-09-07T00:20:21.918Z,87.36
2017-09-07T00:23:24.396Z,87.94
2017-09-07T00:25:52.841Z,87.57
2017-09-07T00:28:22.055Z,87.85
2017-09-07T00:30:51.238Z,87.53
2017-09-07T00:33:20.464Z,87.63
2017-09-07T00:35:48.956Z,87.83
2017-09-07T00:38:17.430Z,87.23
2017-09-07T00:40:45.925Z,87.31
2017-09-07T00:43:14.402Z,87.42
2017-09-07T00:45:42.831Z,88.12
2017-09-07T00:48:11.293Z,87.61
2017-09-07T00:50:39.761Z,87.33
2017-09-07T00:53:08.211Z,87.46
2017-09-07T00:55:36.631Z,88.02
2017-09-07T00:58:05.096Z,87.99
2017-09-07T01:00:33.519Z,87.48
2017-09-07T01:03:01.968Z,87.50
2017-09-07T01:05:30.444Z,87.47
2017-09-07T01:07:58.902Z,87.91
2017-09-07T01:10:27.328Z,87.44
2017-09-07T01:12:55.808Z,86.92
2017-09-07T01:15:24.262Z,87.66
2017-09-07T01:17:52.697Z,87.22
2017-09-07T01:20:21.134Z,87.23
2017-09-07T01:22:49.606Z,87.07
2017-09-07T01:25:18.047Z,87.38
2017-09-07T01:27:47.284Z,87.07
2017-09-07T01:30:15.723Z,87.22
2017-09-07T01:32:44.159Z,87.08
2017-09-07T01:35:12.626Z,87.24
2017-09-07T01:37:41.051Z,87.38
2017-09-07T01:40:09.501Z,87.41
2017-09-07T01:42:37.928Z,87.42
2017-09-07T01:45:06.443Z,87.19
2017-09-07T01:47:34.863Z,87.03
2017-09-07T01:50:03.308Z,86.94
2017-09-07T01:52:31.796Z,86.94
2017-09-07T01:55:00.264Z,87.04
2017-09-07T01:57:28.755Z,86.90
2017-09-07T01:59:57.178Z,87.24
2017-09-07T02:02:25.619Z,87.42
2017-09-07T02:04:54.108Z,87.38
2017-09-07T02:07:22.559Z,87.66
2017-09-07T02:09:51.752Z,87.57
2017-09-07T02:12:20.974Z,87.77
2017-09-07T02:14:49.463Z,88.61
2017-09-07T02:17:17.912Z,87.89
2017-09-07T02:19:47.143Z,88.32
2017-09-07T02:22:15.592Z,88.29
2017-09-07T02:24:44.835Z,88.11
2017-09-07T02:27:13.288Z,88.36
2017-09-07T02:29:42.481Z,88.05
2017-09-07T02:32:11.693Z,88.09
2017-09-07T02:34:40.187Z,88.09
2017-09-07T02:37:08.668Z,87.63
2017-09-07T02:39:37.152Z,87.63
2017-09-07T02:42:05.616Z,87.53
2017-09-07T02:44:34.831Z,87.46
2017-09-07T02:47:03.271Z,87.63
2017-09-07T02:49:31.792Z,87.40
2017-09-07T02:52:00.276Z,87.37
2017-09-07T02:54:28.704Z,87.44
2017-09-07T02:56:57.142Z,87.12
2017-09-07T02:59:25.563Z,86.87
2017-09-07T03:01:54.099Z,86.84
2017-09-07T03:04:22.584Z,86.95
2017-09-07T03:06:51.036Z,86.84
2017-09-07T03:09:20.284Z,86.64
2017-09-07T03:11:48.752Z,86.94
2017-09-07T03:14:17.227Z,86.69
2017-09-07T03:16:45.713Z,86.53
2017-09-07T03:19:14.188Z,86.65
2017-09-07T03:21:42.676Z,86.70
2017-09-07T03:24:11.152Z,86.63
2017-09-07T03:26:39.566Z,86.98
2017-09-07T03:29:08.011Z,86.86
2017-09-07T03:31:36.495Z,86.98
2017-09-07T03:34:04.938Z,86.80
2017-09-07T03:36:33.363Z,86.78
2017-09-07T03:39:01.824Z,86.86
2017-09-07T03:41:31.043Z,86.78
2017-09-07T03:43:59.528Z,87.13
2017-09-07T03:46:27.955Z,87.02
2017-09-07T03:48:56.492Z,87.09
2017-09-07T03:51:24.964Z,87.04
2017-09-07T03:53:53.446Z,87.30
2017-09-07T03:56:21.935Z,86.84
2017-09-07T03:58:50.379Z,86.83
2017-09-07T04:01:19.573Z,87.18
2017-09-07T04:03:48.096Z,87.03
2017-09-07T04:06:16.524Z,87.30
2017-09-07T04:08:44.969Z,87.22
2017-09-07T04:11:13.395Z,86.73
2017-09-07T04:13:41.925Z,86.66
2017-09-07T04:16:10.403Z,86.83
2017-09-07T04:18:38.847Z,86.46
2017-09-07T04:21:07.362Z,86.67
2017-09-07T04:23:35.843Z,86.51
2017-09-07T04:26:04.268Z,86.80
2017-09-07T04:28:32.706Z,86.37
2017-09-07T04:31:01.195Z,87.14
2017-09-07T04:33:29.663Z,86.49
2017-09-07T04:35:58.083Z,86.25
2017-09-07T04:38:26.530Z,85.89
2017-09-07T04:40:55.024Z,85.95
2017-09-07T04:43:23.494Z,85.93
2017-09-07T04:45:51.988Z,86.19
2017-09-07T04:48:20.463Z,86.28
2017-09-07T04:50:48.939Z,86.40
2017-09-07T04:53:17.427Z,85.64
2017-09-07T04:55:45.912Z,85.79
2017-09-07T04:58:14.391Z,85.85
2017-09-07T05:00:42.876Z,85.90
2017-09-07T05:03:11.309Z,85.69
2017-09-07T05:05:39.840Z,85.71
2017-09-07T05:08:08.319Z,85.31
2017-09-07T05:10:36.807Z,85.38
2017-09-07T05:13:05.279Z,85.30
2017-09-07T05:15:33.728Z,85.07
2017-09-07T05:18:02.243Z,84.74
2017-09-07T05:20:30.727Z,84.74
2017-09-07T05:22:59.202Z,84.32
2017-09-07T05:25:27.695Z,84.33
2017-09-07T05:27:56.124Z,84.21
2017-09-07T05:30:24.659Z,84.01
2017-09-07T05:32:53.150Z,84.28
2017-09-07T05:35:21.603Z,84.22
2017-09-07T05:37:50.796Z,84.02
2017-09-07T05:40:20.107Z,83.81
2017-09-07T05:42:49.329Z,83.99
2017-09-07T05:45:17.780Z,84.01
2017-09-07T05:47:46.973Z,83.88
2017-09-07T05:50:16.203Z,84.05
2017-09-07T05:52:44.622Z,83.97
2017-09-07T05:55:13.064Z,84.02
2017-09-07T05:57:41.507Z,83.95
2017-09-07T06:00:10.744Z,83.95
2017-09-07T06:02:39.191Z,83.81
2017-09-07T06:05:08.388Z,83.80
2017-09-07T06:07:37.626Z,83.69
2017-09-07T06:10:06.104Z,84.04
2017-09-07T06:12:34.590Z,83.82
2017-09-07T06:15:03.020Z,83.66
2017-09-07T06:17:31.468Z,83.83
2017-09-07T06:19:59.897Z,83.76
2017-09-07T06:22:29.108Z,83.90
2017-09-07T06:24:58.296Z,84.42
2017-09-07T06:27:27.522Z,83.70
2017-09-07T06:29:55.939Z,83.78
2017-09-07T06:32:24.379Z,83.54
2017-09-07T06:34:52.876Z,83.03
2017-09-07T06:37:21.320Z,83.30
2017-09-07T06:39:50.551Z,82.71
2017-09-07T06:42:19.031Z,82.83
2017-09-07T06:44:47.455Z,82.34
2017-09-07T06:47:15.909Z,82.37
2017-09-07T06:49:44.337Z,82.25
2017-09-07T06:52:13.576Z,82.16
2017-09-07T06:54:41.995Z,81.69
2017-09-07T06:57:10.431Z,81.87
2017-09-07T06:59:38.856Z,81.61
2017-09-07T07:02:07.395Z,81.60
2017-09-07T07:04:35.880Z,81.44
2017-09-07T07:07:04.363Z,81.55
2017-09-07T07:09:32.788Z,81.37
2017-09-07T07:12:01.240Z,80.95
2017-09-07T07:14:29.709Z,81.07
2017-09-07T07:16:58.292Z,80.56
2017-09-07T07:19:26.776Z,80.64
2017-09-07T07:21:55.251Z,80.45
2017-09-07T07:24:23.741Z,80.19
2017-09-07T07:26:52.164Z,80.38
2017-09-07T07:29:20.704Z,80.19
2017-09-07T07:31:49.188Z,80.27
2017-09-07T07:34:17.663Z,80.42
2017-09-07T07:36:46.159Z,79.86
2017-09-07T07:39:14.635Z,79.53
2017-09-07T07:41:43.116Z,79.52
2017-09-07T07:44:11.587Z,79.53
2017-09-07T07:46:40.141Z,79.59
2017-09-07T07:49:08.585Z,79.42
2017-09-07T07:51:37.008Z,79.20
2017-09-07T07:54:06.215Z,78.47
2017-09-07T07:56:35.399Z,78.66
2017-09-07T07:59:04.615Z,78.53
2017-09-07T08:01:33.836Z,78.12
2017-09-07T08:04:02.316Z,78.08
2017-09-07T08:06:30.800Z,77.97
2017-09-07T08:08:59.243Z,77.59
2017-09-07T08:11:28.489Z,77.56
2017-09-07T08:13:56.968Z,77.68
2017-09-07T08:16:25.396Z,77.43
2017-09-07T08:18:53.855Z,77.38
2017-09-07T08:21:22.308Z,77.08
2017-09-07T08:23:50.883Z,76.68
2017-09-07T08:26:19.312Z,76.60
2017-09-07T08:28:47.741Z,75.86
2017-09-07T08:31:16.307Z,76.13
2017-09-07T08:33:45.500Z,75.97
2017-09-07T08:36:14.719Z,75.81
2017-09-07T08:38:43.147Z,76.10
2017-09-07T08:41:11.579Z,75.03
2017-09-07T08:43:40.763Z,75.04
2017-09-07T08:46:09.980Z,75.90
2017-09-07T08:48:38.403Z,75.44
2017-09-07T08:51:06.957Z,75.56
2017-09-07T08:53:35.389Z,75.08
2017-09-07T08:56:03.936Z,74.98
2017-09-07T08:58:32.404Z,74.80
2017-09-07T09:01:00.865Z,74.85
2017-09-07T09:03:30.093Z,74.31
2017-09-07T09:05:58.553Z,74.64
2017-09-07T09:08:27.766Z,73.62
2017-09-07T09:10:56.212Z,74.75
2017-09-07T09:13:25.439Z,73.93
2017-09-07T09:15:53.884Z,74.61
2017-09-07T09:18:23.075Z,75.37
2017-09-07T09:20:51.512Z,75.48
2017-09-07T09:23:19.952Z,76.39
2017-09-07T09:25:49.172Z,75.89
2017-09-07T09:28:17.600Z,77.66
2017-09-07T09:30:46.077Z,77.96
2017-09-07T09:33:14.496Z,78.60
2017-09-07T09:35:43.727Z,78.57
2017-09-07T09:38:12.212Z,78.61
2017-09-07T09:40:40.696Z,78.26
2017-09-07T09:43:09.143Z,78.34
2017-09-07T09:45:38.373Z,78.23
2017-09-07T09:48:06.856Z,77.96
2017-09-07T09:50:35.284Z,77.98
2017-09-07T09:53:03.816Z,77.54
2017-09-07T09:55:32.304Z,78.81
2017-09-07T09:58:00.752Z,76.97
2017-09-07T10:00:29.980Z,76.45
2017-09-07T10:02:58.423Z,77.99
2017-09-07T10:05:27.660Z,75.09
2017-09-07T10:07:56.117Z,77.22
2017-09-07T10:10:25.344Z,77.08
2017-09-07T10:12:53.828Z,76.41
2017-09-07T10:15:22.309Z,76.94
2017-09-07T10:17:50.756Z,76.86
2017-09-07T10:20:19.988Z,75.75
2017-09-07T10:22:48.463Z,76.61
2017-09-07T10:25:16.951Z,75.17
2017-09-07T10:27:45.435Z,75.38
2017-09-07T10:30:13.863Z,75.01
2017-09-07T10:32:42.400Z,76.47
2017-09-07T10:35:10.871Z,75.48
2017-09-07T10:37:39.678Z,75.03
2017-09-07T10:40:08.155Z,74.40
2017-09-07T10:42:36.612Z,74.01
2017-09-07T10:45:05.107Z,73.02
2017-09-07T10:47:33.590Z,73.49
2017-09-07T10:50:02.080Z,72.55
2017-09-07T10:52:30.555Z,72.86
2017-09-07T10:54:59.047Z,71.58
2017-09-07T10:57:27.476Z,71.50
2017-09-07T10:59:56.003Z,71.35
2017-09-07T11:02:24.492Z,70.59
2017-09-07T11:04:52.940Z,70.49
2017-09-07T11:07:22.186Z,71.09
2017-09-07T11:09:50.628Z,70.29
2017-09-07T11:12:19.851Z,70.54
2017-09-07T11:14:48.332Z,69.86
2017-09-07T11:17:16.889Z,70.47
2017-09-07T11:19:46.215Z,70.62
2017-09-07T11:22:14.631Z,70.81
2017-09-07T11:24:43.180Z,69.70
2017-09-07T11:27:11.613Z,70.47
2017-09-07T11:29:40.069Z,71.20
2017-09-07T11:32:08.500Z,71.32
2017-09-07T11:34:37.829Z,71.22
2017-09-07T11:37:06.256Z,71.63
2017-09-07T11:39:34.787Z,71.57
2017-09-07T11:42:03.212Z,72.19
2017-09-07T11:44:31.755Z,72.15
2017-09-07T11:47:00.236Z,72.79
2017-09-07T11:49:28.688Z,73.35
2017-09-07T11:51:57.921Z,72.99
2017-09-07T11:54:26.365Z,73.27
2017-09-07T11:56:55.595Z,73.54
2017-09-07T11:59:24.079Z,73.39
2017-09-07T12:01:52.563Z,71.92
2017-09-07T12:04:20.983Z,73.47
2017-09-07T12:06:49.536Z,74.59
2017-09-07T12:09:17.963Z,74.88
2017-09-07T12:11:46.408Z,74.78
2017-09-07T12:14:14.868Z,75.25
2017-09-07T12:16:43.352Z,74.91
2017-09-07T12:19:11.781Z,75.23
2017-09-07T12:21:40.231Z,75.96
2017-09-07T12:24:08.695Z,75.47
2017-09-07T12:26:37.139Z,75.89
2017-09-07T12:29:06.323Z,76.17
2017-09-07T12:31:34.764Z,76.19
2017-09-07T12:34:03.192Z,78.06
2017-09-07T12:36:31.644Z,77.89
2017-09-07T12:39:00.091Z,78.54
2017-09-07T12:41:28.580Z,78.73
2017-09-07T12:43:57.060Z,78.47
2017-09-07T12:46:25.491Z,78.00
2017-09-07T12:48:54.023Z,77.32
2017-09-07T12:51:22.517Z,76.99
2017-09-07T12:53:50.992Z,77.10
2017-09-07T12:56:19.431Z,76.90
2017-09-07T12:58:47.866Z,78.97
2017-09-07T13:01:16.336Z,76.89
2017-09-07T13:03:44.807Z,78.69
2017-09-07T13:06:13.252Z,79.34
2017-09-07T13:08:41.672Z,79.02
2017-09-07T13:11:10.159Z,79.38
2017-09-07T13:13:38.584Z,80.42
2017-09-07T13:16:07.040Z,81.16
2017-09-07T13:18:35.495Z,80.48
2017-09-07T13:21:03.923Z,84.09
2017-09-07T13:23:32.367Z,84.10
2017-09-07T13:26:00.791Z,83.35
2017-09-07T13:28:29.232Z,83.75
2017-09-07T13:30:57.707Z,82.41
2017-09-07T13:33:26.162Z,85.57
2017-09-07T13:35:55.488Z,84.89
2017-09-07T13:38:23.975Z,84.89
2017-09-07T13:40:52.403Z,84.82
2017-09-07T13:43:20.932Z,84.02
2017-09-07T13:45:49.419Z,85.65
2017-09-07T13:48:17.861Z,86.74
2017-09-07T13:50:47.101Z,85.99
2017-09-07T13:53:15.596Z,86.97
2017-09-07T13:55:44.064Z,86.17
2017-09-07T13:58:12.543Z,85.18
2017-09-07T14:00:40.971Z,86.00
2017-09-07T14:03:09.424Z,86.39
2017-09-07T14:05:37.897Z,84.90
2017-09-07T14:08:06.351Z,85.45
2017-09-07T14:10:35.539Z,84.68
2017-09-07T14:13:04.767Z,86.43
2017-09-07T14:15:33.252Z,84.76
2017-09-07T14:18:01.705Z,84.33
2017-09-07T14:20:30.904Z,84.35
2017-09-07T14:23:00.115Z,83.77
2017-09-07T14:25:29.319Z,83.56
2017-09-07T14:27:57.813Z,84.40
2017-09-07T14:30:26.231Z,84.48
2017-09-07T14:32:54.661Z,85.84
2017-09-07T14:35:23.147Z,84.43
2017-09-07T14:37:51.627Z,84.17
2017-09-07T14:40:20.116Z,83.62
2017-09-07T14:42:48.600Z,83.59
2017-09-07T14:45:17.048Z,82.36
2017-09-07T14:47:46.240Z,84.45
2017-09-07T14:50:14.772Z,83.13
2017-09-07T14:52:43.248Z,83.05
2017-09-07T14:55:11.723Z,82.92
2017-09-07T14:57:40.156Z,82.92
2017-09-07T15:00:08.607Z,82.49
2017-09-07T15:02:37.067Z,82.77
2017-09-07T15:05:05.547Z,82.33
2017-09-07T15:07:33.973Z,82.97
2017-09-07T15:10:02.423Z,83.18
2017-09-07T15:12:30.852Z,83.11
2017-09-07T15:14:59.372Z,82.86
2017-09-07T15:17:27.855Z,83.41
2017-09-07T15:19:56.335Z,82.48
2017-09-07T15:22:24.825Z,81.42
2017-09-07T15:24:53.271Z,81.48
2017-09-07T15:27:22.499Z,80.88
2017-09-07T15:29:50.984Z,81.08
2017-09-07T15:32:19.469Z,80.63
2017-09-07T15:34:48.016Z,80.50
2017-09-07T15:37:17.253Z,80.54
2017-09-07T15:39:45.767Z,80.77
2017-09-07T15:42:14.211Z,80.72
2017-09-07T15:44:42.692Z,80.89
2017-09-07T15:47:11.135Z,81.16
2017-09-07T15:49:39.559Z,80.95
2017-09-07T15:52:08.040Z,81.14
2017-09-07T15:54:36.520Z,80.42
2017-09-07T15:57:04.968Z,80.76
2017-09-07T15:59:34.172Z,81.05
2017-09-07T16:02:03.405Z,80.89
2017-09-07T16:04:31.837Z,80.88
2017-09-07T16:07:00.289Z,81.32
2017-09-07T16:09:28.712Z,81.24
2017-09-07T16:11:57.924Z,80.58
2017-09-07T16:14:27.112Z,81.13
2017-09-07T16:16:56.443Z,80.94
2017-09-07T16:19:24.923Z,81.24
2017-09-07T16:21:53.374Z,80.99
2017-09-07T16:24:22.567Z,81.27
2017-09-07T16:26:51.780Z,81.01
2017-09-07T16:29:20.976Z,81.04
2017-09-07T16:31:50.351Z,81.36
2017-09-07T16:34:18.788Z,81.86
2017-09-07T16:36:47.240Z,82.12
2017-09-07T16:39:16.436Z,82.64
2017-09-07T16:41:45.664Z,82.45
2017-09-07T16:44:14.092Z,82.94
2017-09-07T16:46:42.643Z,83.20
2017-09-07T16:49:11.111Z,83.83
2017-09-07T16:51:39.602Z,84.27
2017-09-07T16:54:08.046Z,84.79
2017-09-07T16:56:37.266Z,85.10
2017-09-07T16:59:05.751Z,84.87
2017-09-07T17:01:34.197Z,85.63
2017-09-07T17:04:02.628Z,83.27
2017-09-07T17:06:31.063Z,82.53
2017-09-07T17:09:00.305Z,81.78
2017-09-07T17:11:28.805Z,82.87
2017-09-07T17:13:57.265Z,81.63
2017-09-07T17:16:25.751Z,79.93
2017-09-07T17:18:54.200Z,81.03
2017-09-07T17:21:23.443Z,80.52
2017-09-07T17:23:51.908Z,82.00
2017-09-07T17:26:20.384Z,82.14
2017-09-07T17:28:48.832Z,82.71
2017-09-07T17:31:18.073Z,83.21
2017-09-07T17:33:46.515Z,83.16
2017-09-07T17:36:15.744Z,84.53
2017-09-07T17:38:44.242Z,83.99
2017-09-07T17:41:12.716Z,85.18
2017-09-07T17:43:41.200Z,85.22
2017-09-07T17:46:09.680Z,85.01
2017-09-07T17:48:38.155Z,84.95
2017-09-07T17:51:06.646Z,85.89
2017-09-07T17:53:35.095Z,86.69
2017-09-07T17:56:04.338Z,85.70
2017-09-07T17:58:32.785Z,86.43
2017-09-07T18:01:01.220Z,86.81
2017-09-07T18:03:29.772Z,87.15
2017-09-07T18:05:58.256Z,87.13
2017-09-07T18:08:26.744Z,87.76
2017-09-07T18:10:55.177Z,88.23
2017-09-07T18:13:24.371Z,87.70
2017-09-07T18:15:52.825Z,87.01
2017-09-07T18:18:21.285Z,87.40
2017-09-07T18:20:49.740Z,88.15
2017-09-07T18:23:18.240Z,87.08
2017-09-07T18:25:46.724Z,86.75
2017-09-07T18:28:15.153Z,86.93
2017-09-07T18:30:43.679Z,86.06
2017-09-07T18:33:12.172Z,85.12
2017-09-07T18:35:40.620Z,84.17
2017-09-07T18:38:09.816Z,83.47
2017-09-07T18:40:39.048Z,82.68
2017-09-07T18:43:07.477Z,82.74
2017-09-07T18:45:35.933Z,81.72
2017-09-07T18:48:04.369Z,83.02
2017-09-07T18:50:33.574Z,82.13
2017-09-07T18:53:02.765Z,82.41
2017-09-07T18:55:31.977Z,82.37
2017-09-07T18:58:00.485Z,82.93
2017-09-07T19:00:28.937Z,83.04
2017-09-07T19:02:58.123Z,83.17
2017-09-07T19:05:27.336Z,82.70
2017-09-07T19:07:56.548Z,83.46
2017-09-07T19:10:24.987Z,83.52
2017-09-07T19:12:54.228Z,83.50
2017-09-07T19:15:22.656Z,83.68
2017-09-07T19:17:51.187Z,83.46
2017-09-07T19:20:19.607Z,83.72
2017-09-07T19:22:48.055Z,83.87
2017-09-07T19:25:16.474Z,84.13
2017-09-07T19:27:45.020Z,84.31
2017-09-07T19:30:13.499Z,84.48
2017-09-07T19:32:41.979Z,85.09
2017-09-07T19:35:10.464Z,84.65
2017-09-07T19:37:38.945Z,85.85
2017-09-07T19:40:07.428Z,85.79
2017-09-07T19:42:35.872Z,85.95
2017-09-07T19:45:05.064Z,85.68
2017-09-07T19:47:33.513Z,85.82
2017-09-07T19:50:01.940Z,86.53
2017-09-07T19:52:31.147Z,86.21
2017-09-07T19:55:00.339Z,86.11
2017-09-07T19:57:29.547Z,86.66
2017-09-07T19:59:58.049Z,87.55
2017-09-07T20:02:26.497Z,87.22
2017-09-07T20:04:55.723Z,86.99
2017-09-07T20:07:24.177Z,87.81
2017-09-07T20:09:53.368Z,88.04
2017-09-07T20:12:22.606Z,88.18
2017-09-07T20:14:51.084Z,87.57
2017-09-07T20:17:19.503Z,88.22
2017-09-07T20:19:47.939Z,88.27
2017-09-07T20:22:16.426Z,88.54
2017-09-07T20:24:44.911Z,88.56
2017-09-07T20:27:13.403Z,89.06
2017-09-07T20:29:41.847Z,89.12
2017-09-07T20:32:11.066Z,88.98
2017-09-07T20:34:40.364Z,89.18
2017-09-07T20:37:08.799Z,89.06
2017-09-07T20:39:37.339Z,89.45
2017-09-07T20:42:05.823Z,89.18
2017-09-07T20:44:34.314Z,89.11
2017-09-07T20:47:02.754Z,88.95
2017-09-07T20:49:31.208Z,89.12
2017-09-07T20:51:59.652Z,88.93
2017-09-07T20:54:28.100Z,88.98
2017-09-07T20:56:57.331Z,88.97
2017-09-07T20:59:25.781Z,89.05
2017-09-07T21:01:54.980Z,89.16
2017-09-07T21:04:24.192Z,89.23
2017-09-07T21:06:53.379Z,89.13
2017-09-07T21:09:22.603Z,89.34
2017-09-07T21:11:51.027Z,89.22
2017-09-07T21:14:19.487Z,89.63
2017-09-07T21:16:47.939Z,89.22
2017-09-07T21:19:16.437Z,89.25
2017-09-07T21:21:44.884Z,89.50
2017-09-07T21:24:14.115Z,89.59
2017-09-07T21:26:42.556Z,89.31
2017-09-07T21:29:11.800Z,89.44
2017-09-07T21:31:40.247Z,89.21
2017-09-07T21:34:09.471Z,89.48
2017-09-07T21:36:37.920Z,89.69
2017-09-07T21:39:07.107Z,89.60
2017-09-07T21:41:35.639Z,89.71
2017-09-07T21:44:04.124Z,89.59
2017-09-07T21:46:32.603Z,89.86
2017-09-07T21:49:01.088Z,89.61
2017-09-07T21:51:29.538Z,89.91
2017-09-07T21:53:58.768Z,90.05
2017-09-07T21:56:27.217Z,89.98
2017-09-07T21:58:56.452Z,90.08
2017-09-07T22:01:24.932Z,90.07
2017-09-07T22:03:53.352Z,90.27
2017-09-07T22:06:21.791Z,90.56
2017-09-07T22:08:50.276Z,90.09
2017-09-07T22:11:18.756Z,90.43
2017-09-07T22:13:47.245Z,90.11
2017-09-07T22:16:15.720Z,90.43
2017-09-07T22:18:44.147Z,90.48
2017-09-07T22:21:12.583Z,90.78
2017-09-07T22:23:41.008Z,90.58
2017-09-07T22:26:09.448Z,90.67
2017-09-07T22:28:37.920Z,90.80
2017-09-07T22:31:06.409Z,90.99
2017-09-07T22:33:34.892Z,91.21
2017-09-07T22:36:03.376Z,91.21
2017-09-07T22:38:31.803Z,91.30
2017-09-07T22:41:00.232Z,91.55
2017-09-07T22:43:28.676Z,91.63
2017-09-07T22:45:57.916Z,91.72
2017-09-07T22:48:26.364Z,91.57
2017-09-07T22:50:55.596Z,91.77
2017-09-07T22:53:24.072Z,92.06
2017-09-07T22:55:52.556Z,92.18
2017-09-07T22:58:20.999Z,92.12
2017-09-07T23:00:49.434Z,92.36
2017-09-07T23:03:17.904Z,92.12
2017-09-07T23:05:46.333Z,91.84
2017-09-07T23:08:14.768Z,91.91
2017-09-07T23:10:43.243Z,92.15
2017-09-07T23:13:11.729Z,91.72
2017-09-07T23:15:40.211Z,91.60
2017-09-07T23:18:08.650Z,92.03
2017-09-07T23:20:37.171Z,91.77
2017-09-07T23:23:05.656Z,91.72
2017-09-07T23:25:34.081Z,91.85
2017-09-07T23:28:02.681Z,91.65
2017-09-07T23:30:31.204Z,91.81
2017-09-07T23:32:59.688Z,91.63
2017-09-07T23:35:28.172Z,92.08
2017-09-07T23:37:56.620Z,91.99
2017-09-07T23:40:25.813Z,91.97
2017-09-07T23:42:55.049Z,92.08
2017-09-07T23:45:23.467Z,92.32
2017-09-07T23:47:52.003Z,92.18
2017-09-07T23:50:20.482Z,91.98
2017-09-07T23:52:48.902Z,91.63
2017-09-07T23:55:17.472Z,92.66
2017-09-07T23:57:45.935Z,91.91
